sensor_id;sensor_type;location;lat;lon;timestamp;pressure;altitude;pressure_sealevel;temperature;humidity
10145;BME280;5113;41.822;23.564;2022-07-29T00:02:22;-11406.81;;;17.06;100.00
10145;BME280;5113;41.822;23.564;2022-07-29T00:05:28;-11391.72;;;16.52;100.00
10145;BME280;5113;41.822;23.564;2022-07-29T00:08:35;-11383.00;;;16.21;100.00
10145;BME280;5113;41.822;23.564;2022-07-29T00:11:41;-11390.03;;;16.46;100.00
10145;BME280;5113;41.822;23.564;2022-07-29T00:14:48;-11376.66;;;15.98;100.00
10145;BME280;5113;41.822;23.564;2022-07-29T00:17:55;-11381.44;;;16.15;100.00
10145;BME280;5113;41.822;23.564;2022-07-29T00:21:02;-11384.13;;;16.25;100.00
10145;BME280;5113;41.822;23.564;2022-07-29T00:24:08;-11399.19;;;16.79;100.00
10145;BME280;5113;41.822;23.564;2022-07-29T00:27:14;-11408.78;;;17.13;100.00
10145;BME280;5113;41.822;23.564;2022-07-29T00:30:20;-11410.75;;;17.21;100.00
10145;BME280;5113;41.822;23.564;2022-07-29T00:33:28;-11405.69;;;17.02;100.00
10145;BME280;5113;41.822;23.564;2022-07-29T00:36:34;-11400.03;;;16.82;100.00
10145;BME280;5113;41.822;23.564;2022-07-29T00:39:39;-11391.03;;;16.49;100.00
10145;BME280;5113;41.822;23.564;2022-07-29T00:42:47;-11404.56;;;16.98;100.00
10145;BME280;5113;41.822;23.564;2022-07-29T00:45:53;-11407.50;;;17.09;100.00
10145;BME280;5113;41.822;23.564;2022-07-29T00:49:00;-11403.56;;;16.95;100.00
10145;BME280;5113;41.822;23.564;2022-07-29T00:52:08;-11384.25;;;16.25;100.00
10145;BME280;5113;41.822;23.564;2022-07-29T00:55:15;-11377.78;;;16.02;100.00
10145;BME280;5113;41.822;23.564;2022-07-29T00:58:22;-11380.31;;;16.11;100.00
10145;BME280;5113;41.822;23.564;2022-07-29T01:01:29;-11384.81;;;16.27;100.00
10145;BME280;5113;41.822;23.564;2022-07-29T01:04:36;-11389.03;;;16.42;100.00
10145;BME280;5113;41.822;23.564;2022-07-29T01:07:43;-11393.69;;;16.59;100.00
10145;BME280;5113;41.822;23.564;2022-07-29T01:10:50;-11395.97;;;16.67;100.00
10145;BME280;5113;41.822;23.564;2022-07-29T01:13:58;-11402.28;;;16.90;100.00
10145;BME280;5113;41.822;23.564;2022-07-29T01:17:11;-11387.91;;;16.38;100.00
10145;BME280;5113;41.822;23.564;2022-07-29T01:20:25;-11380.75;;;16.12;100.00
10145;BME280;5113;41.822;23.564;2022-07-29T01:23:51;-11393.56;;;16.59;100.00
10145;BME280;5113;41.822;23.564;2022-07-29T01:27:04;-11393.00;;;16.57;100.00
10145;BME280;5113;41.822;23.564;2022-07-29T01:30:14;-11395.53;;;16.66;100.00
10145;BME280;5113;41.822;23.564;2022-07-29T01:33:23;-11397.78;;;16.74;100.00
10145;BME280;5113;41.822;23.564;2022-07-29T01:36:50;-11394.69;;;16.63;100.00
10145;BME280;5113;41.822;23.564;2022-07-29T01:40:02;-11390.47;;;16.47;100.00
10145;BME280;5113;41.822;23.564;2022-07-29T01:43:11;-11388.75;;;16.41;100.00
10145;BME280;5113;41.822;23.564;2022-07-29T01:46:25;-11395.12;;;16.64;100.00
10145;BME280;5113;41.822;23.564;2022-07-29T01:49:36;-11391.59;;;16.51;100.00
10145;BME280;5113;41.822;23.564;2022-07-29T01:52:47;-11381.59;;;16.15;100.00
10145;BME280;5113;41.822;23.564;2022-07-29T01:55:57;-11378.63;;;16.05;100.00
10145;BME280;5113;41.822;23.564;2022-07-29T01:59:08;-11367.06;;;15.63;100.00
10145;BME280;5113;41.822;23.564;2022-07-29T02:02:17;-11342.28;;;14.74;100.00
10145;BME280;5113;41.822;23.564;2022-07-29T02:05:26;-11356.94;;;15.27;100.00
10145;BME280;5113;41.822;23.564;2022-07-29T02:08:34;-11374.25;;;15.89;100.00
10145;BME280;5113;41.822;23.564;2022-07-29T02:11:47;-11381.88;;;16.16;100.00
10145;BME280;5113;41.822;23.564;2022-07-29T02:14:54;-11366.78;;;15.62;100.00
10145;BME280;5113;41.822;23.564;2022-07-29T02:18:07;-11362.00;;;15.45;100.00
10145;BME280;5113;41.822;23.564;2022-07-29T02:21:15;-11358.91;;;15.34;100.00
10145;BME280;5113;41.822;23.564;2022-07-29T02:24:25;-11373.00;;;15.84;100.00
10145;BME280;5113;41.822;23.564;2022-07-29T02:27:33;-11363.13;;;15.49;100.00
10145;BME280;5113;41.822;23.564;2022-07-29T02:30:41;-11367.63;;;15.65;100.00
10145;BME280;5113;41.822;23.564;2022-07-29T02:33:52;-11364.69;;;15.55;100.00
10145;BME280;5113;41.822;23.564;2022-07-29T02:36:59;-11371.84;;;15.80;100.00
10145;BME280;5113;41.822;23.564;2022-07-29T02:40:09;-11381.03;;;16.13;100.00
10145;BME280;5113;41.822;23.564;2022-07-29T02:43:17;-11384.53;;;16.26;100.00
10145;BME280;5113;41.822;23.564;2022-07-29T02:46:29;-11367.91;;;15.66;100.00
10145;BME280;5113;41.822;23.564;2022-07-29T02:49:41;-11367.91;;;15.66;100.00
10145;BME280;5113;41.822;23.564;2022-07-29T02:52:53;-11369.03;;;15.70;100.00
10145;BME280;5113;41.822;23.564;2022-07-29T02:56:06;-11352.97;;;15.12;100.00
10145;BME280;5113;41.822;23.564;2022-07-29T02:59:15;-11350.16;;;15.02;100.00
10145;BME280;5113;41.822;23.564;2022-07-29T03:02:27;-11368.19;;;15.67;100.00
10145;BME280;5113;41.822;23.564;2022-07-29T03:05:37;-11363.13;;;15.49;100.00
10145;BME280;5113;41.822;23.564;2022-07-29T03:08:44;-11336.94;;;14.54;100.00
10145;BME280;5113;41.822;23.564;2022-07-29T03:11:51;-11329.88;;;14.29;100.00
10145;BME280;5113;41.822;23.564;2022-07-29T03:14:59;-11341.56;;;14.71;100.00
10145;BME280;5113;41.822;23.564;2022-07-29T03:18:07;-11340.03;;;14.66;100.00
10145;BME280;5113;41.822;23.564;2022-07-29T03:21:15;-11335.09;;;14.48;100.00
10145;BME280;5113;41.822;23.564;2022-07-29T03:24:26;-11351.72;;;15.08;100.00
10145;BME280;5113;41.822;23.564;2022-07-29T03:27:32;-11357.06;;;15.27;100.00
10145;BME280;5113;41.822;23.564;2022-07-29T03:30:40;-11353.13;;;15.13;100.00
10145;BME280;5113;41.822;23.564;2022-07-29T03:33:48;-11339.47;;;14.64;100.00
10145;BME280;5113;41.822;23.564;2022-07-29T03:36:55;-11338.63;;;14.61;100.00
10145;BME280;5113;41.822;23.564;2022-07-29T03:40:04;-11326.94;;;14.18;100.00
10145;BME280;5113;41.822;23.564;2022-07-29T03:43:13;-11327.63;;;14.21;100.00
10145;BME280;5113;41.822;23.564;2022-07-29T03:46:22;-11336.09;;;14.51;100.00
10145;BME280;5113;41.822;23.564;2022-07-29T03:49:29;-11350.44;;;15.03;100.00
10145;BME280;5113;41.822;23.564;2022-07-29T03:52:38;-11364.09;;;15.52;100.00
10145;BME280;5113;41.822;23.564;2022-07-29T03:55:53;-11371.72;;;15.80;100.00
10145;BME280;5113;41.822;23.564;2022-07-29T03:59:01;-11373.28;;;15.85;100.00
10145;BME280;5113;41.822;23.564;2022-07-29T04:02:10;-11351.72;;;15.08;100.00
10145;BME280;5113;41.822;23.564;2022-07-29T04:05:19;-11349.47;;;15.00;100.00
10145;BME280;5113;41.822;23.564;2022-07-29T04:08:27;-11360.31;;;15.39;100.00
10145;BME280;5113;41.822;23.564;2022-07-29T04:11:34;-11363.97;;;15.52;100.00
10145;BME280;5113;41.822;23.564;2022-07-29T04:15:00;-11353.41;;;15.14;100.00
10145;BME280;5113;41.822;23.564;2022-07-29T04:18:07;-11363.97;;;15.52;100.00
10145;BME280;5113;41.822;23.564;2022-07-29T04:21:13;-11361.28;;;15.42;100.00
10145;BME280;5113;41.822;23.564;2022-07-29T04:24:21;-11368.19;;;15.67;100.00
10145;BME280;5113;41.822;23.564;2022-07-29T04:27:27;-11380.31;;;16.11;100.00
10145;BME280;5113;41.822;23.564;2022-07-29T04:30:34;-11389.03;;;16.42;100.00
10145;BME280;5113;41.822;23.564;2022-07-29T04:33:41;-11386.66;;;16.34;100.00
10145;BME280;5113;41.822;23.564;2022-07-29T04:36:48;-11377.78;;;16.02;100.00
10145;BME280;5113;41.822;23.564;2022-07-29T04:39:55;-11385.66;;;16.30;100.00
10145;BME280;5113;41.822;23.564;2022-07-29T04:43:01;-11391.59;;;16.51;100.00
10145;BME280;5113;41.822;23.564;2022-07-29T04:46:10;-11391.59;;;16.51;100.00
10145;BME280;5113;41.822;23.564;2022-07-29T04:49:16;-11390.19;;;16.46;100.00
10145;BME280;5113;41.822;23.564;2022-07-29T04:52:22;-11397.50;;;16.73;100.00
10145;BME280;5113;41.822;23.564;2022-07-29T04:55:31;-11395.69;;;16.66;100.00
10145;BME280;5113;41.822;23.564;2022-07-29T04:58:37;-11389.47;;;16.44;100.00
10145;BME280;5113;41.822;23.564;2022-07-29T05:01:44;-11406.09;;;17.04;100.00
10145;BME280;5113;41.822;23.564;2022-07-29T05:04:50;-11414.84;;;17.35;100.00
10145;BME280;5113;41.822;23.564;2022-07-29T05:07:56;-11419.34;;;17.52;100.00
10145;BME280;5113;41.822;23.564;2022-07-29T05:11:04;-11425.00;;;17.72;100.00
10145;BME280;5113;41.822;23.564;2022-07-29T05:14:16;-11436.56;;;18.13;100.00
10145;BME280;5113;41.822;23.564;2022-07-29T05:17:23;-11439.22;;;18.23;100.00
10145;BME280;5113;41.822;23.564;2022-07-29T05:20:30;-11456.44;;;18.85;100.00
10145;BME280;5113;41.822;23.564;2022-07-29T05:23:37;-11460.94;;;19.01;100.00
10145;BME280;5113;41.822;23.564;2022-07-29T05:26:45;-11463.75;;;19.11;100.00
10145;BME280;5113;41.822;23.564;2022-07-29T05:29:51;-11456.84;;;18.87;100.00
10145;BME280;5113;41.822;23.564;2022-07-29T05:32:57;-11457.41;;;18.89;100.00
10145;BME280;5113;41.822;23.564;2022-07-29T05:36:04;-11456.44;;;18.85;100.00
10145;BME280;5113;41.822;23.564;2022-07-29T05:39:11;-11461.94;;;19.05;100.00
10145;BME280;5113;41.822;23.564;2022-07-29T05:42:20;-11472.22;;;19.42;100.00
10145;BME280;5113;41.822;23.564;2022-07-29T05:45:26;-11477.03;;;19.59;100.00
10145;BME280;5113;41.822;23.564;2022-07-29T05:48:32;-11483.22;;;19.82;100.00
10145;BME280;5113;41.822;23.564;2022-07-29T05:51:38;-11482.25;;;19.78;100.00
10145;BME280;5113;41.822;23.564;2022-07-29T05:54:44;-11491.41;;;20.11;100.00
10145;BME280;5113;41.822;23.564;2022-07-29T05:57:53;-11493.94;;;20.20;100.00
10145;BME280;5113;41.822;23.564;2022-07-29T06:00:59;-11507.50;;;20.69;100.00
10145;BME280;5113;41.822;23.564;2022-07-29T06:04:05;-11493.53;;;20.19;100.00
10145;BME280;5113;41.822;23.564;2022-07-29T06:07:12;-11501.56;;;20.48;100.00
10145;BME280;5113;41.822;23.564;2022-07-29T06:10:18;-11494.22;;;20.21;100.00
10145;BME280;5113;41.822;23.564;2022-07-29T06:13:32;-11506.34;;;20.65;100.00
10145;BME280;5113;41.822;23.564;2022-07-29T06:16:38;-11515.25;;;20.97;100.00
10145;BME280;5113;41.822;23.564;2022-07-29T06:19:44;-11521.44;;;21.19;100.00
10145;BME280;5113;41.822;23.564;2022-07-29T06:22:51;-11534.00;;;21.64;100.00
10145;BME280;5113;41.822;23.564;2022-07-29T06:25:57;-11529.34;;;21.48;100.00
10145;BME280;5113;41.822;23.564;2022-07-29T06:29:06;-11536.28;;;21.72;100.00
10145;BME280;5113;41.822;23.564;2022-07-29T06:32:12;-11543.03;;;21.97;100.00
10145;BME280;5113;41.822;23.564;2022-07-29T06:35:18;-11532.03;;;21.57;100.00
10145;BME280;5113;41.822;23.564;2022-07-29T06:38:45;-11526.66;;;21.38;100.00
10145;BME280;5113;41.822;23.564;2022-07-29T06:41:55;-11540.06;;;21.86;94.61
10145;BME280;5113;41.822;23.564;2022-07-29T06:45:03;-11566.03;;;22.80;91.76
10145;BME280;5113;41.822;23.564;2022-07-29T06:48:12;-11552.91;;;22.32;94.61
10145;BME280;5113;41.822;23.564;2022-07-29T06:51:19;-11562.22;;;22.66;92.29
10145;BME280;5113;41.822;23.564;2022-07-29T06:54:26;-11575.91;;;23.15;90.18
10145;BME280;5113;41.822;23.564;2022-07-29T06:57:33;-11572.13;;;23.01;91.48
10145;BME280;5113;41.822;23.564;2022-07-29T07:00:40;-11573.81;;;23.08;88.91
10145;BME280;5113;41.822;23.564;2022-07-29T07:03:46;-11592.84;;;23.76;84.82
10145;BME280;5113;41.822;23.564;2022-07-29T07:06:53;-11589.34;;;23.63;86.78
10145;BME280;5113;41.822;23.564;2022-07-29T07:10:00;-11597.66;;;23.93;83.08
10145;BME280;5113;41.822;23.564;2022-07-29T07:13:06;-11594.13;;;23.81;85.54
10145;BME280;5113;41.822;23.564;2022-07-29T07:16:13;-11595.97;;;23.87;85.84
10145;BME280;5113;41.822;23.564;2022-07-29T07:19:20;-11593.56;;;23.79;85.76
10145;BME280;5113;41.822;23.564;2022-07-29T07:22:26;-11619.25;;;24.71;81.20
10145;BME280;5113;41.822;23.564;2022-07-29T07:25:33;-11612.47;;;24.47;85.66
10145;BME280;5113;41.822;23.564;2022-07-29T07:28:39;-11619.69;;;24.73;85.46
10145;BME280;5113;41.822;23.564;2022-07-29T07:31:47;-11636.78;;;25.34;80.10
10145;BME280;5113;41.822;23.564;2022-07-29T07:34:54;-11620.25;;;24.75;81.04
10145;BME280;5113;41.822;23.564;2022-07-29T07:38:02;-11619.81;;;24.73;84.58
10145;BME280;5113;41.822;23.564;2022-07-29T07:41:10;-11650.59;;;25.84;75.75
10145;BME280;5113;41.822;23.564;2022-07-29T07:44:17;-11642.41;;;25.54;76.61
10145;BME280;5113;41.822;23.564;2022-07-29T07:47:25;-11652.72;;;25.91;74.37
10145;BME280;5113;41.822;23.564;2022-07-29T07:50:32;-11646.78;;;25.70;72.82
10145;BME280;5113;41.822;23.564;2022-07-29T07:53:38;-11645.81;;;25.66;71.89
10145;BME280;5113;41.822;23.564;2022-07-29T07:56:45;-11655.41;;;26.01;71.88
10145;BME280;5113;41.822;23.564;2022-07-29T07:59:56;-11668.13;;;26.47;69.90
10145;BME280;5113;41.822;23.564;2022-07-29T08:03:04;-11658.38;;;26.12;67.44
10145;BME280;5113;41.822;23.564;2022-07-29T08:06:21;-11670.53;;;26.55;64.92
10145;BME280;5113;41.822;23.564;2022-07-29T08:09:29;-11686.91;;;27.14;62.34
10145;BME280;5113;41.822;23.564;2022-07-29T08:12:35;-11663.03;;;26.28;63.06
10145;BME280;5113;41.822;23.564;2022-07-29T08:15:42;-11700.88;;;27.65;58.73
10145;BME280;5113;41.822;23.564;2022-07-29T08:18:51;-11699.19;;;27.58;55.32
10145;BME280;5113;41.822;23.564;2022-07-29T08:22:01;-11702.72;;;27.71;52.94
10145;BME280;5113;41.822;23.564;2022-07-29T08:25:08;-11724.06;;;28.48;52.31
10145;BME280;5113;41.822;23.564;2022-07-29T08:28:15;-11704.97;;;27.79;50.56
10145;BME280;5113;41.822;23.564;2022-07-29T08:31:21;-11718.69;;;28.29;50.62
10145;BME280;5113;41.822;23.564;2022-07-29T08:34:29;-11735.06;;;28.87;47.52
10145;BME280;5113;41.822;23.564;2022-07-29T08:37:36;-11718.97;;;28.30;48.03
10145;BME280;5113;41.822;23.564;2022-07-29T08:40:42;-11726.59;;;28.57;49.48
10145;BME280;5113;41.822;23.564;2022-07-29T08:43:48;-11745.25;;;29.24;48.18
10145;BME280;5113;41.822;23.564;2022-07-29T08:46:55;-11733.66;;;28.82;48.10
10145;BME280;5113;41.822;23.564;2022-07-29T08:50:03;-11737.03;;;28.95;48.76
10145;BME280;5113;41.822;23.564;2022-07-29T08:53:11;-11760.06;;;29.77;47.26
10145;BME280;5113;41.822;23.564;2022-07-29T08:56:19;-11741.28;;;29.10;49.23
10145;BME280;5113;41.822;23.564;2022-07-29T08:59:27;-11760.50;;;29.79;47.52
10145;BME280;5113;41.822;23.564;2022-07-29T09:02:36;-11726.59;;;28.57;47.71
10145;BME280;5113;41.822;23.564;2022-07-29T09:05:47;-11742.84;;;29.15;47.67
10145;BME280;5113;41.822;23.564;2022-07-29T09:08:54;-11754.28;;;29.56;46.19
10145;BME280;5113;41.822;23.564;2022-07-29T09:12:04;-11748.06;;;29.34;45.94
10145;BME280;5113;41.822;23.564;2022-07-29T09:15:13;-11752.03;;;29.48;44.32
10145;BME280;5113;41.822;23.564;2022-07-29T09:18:33;-11772.38;;;30.21;45.81
10145;BME280;5113;41.822;23.564;2022-07-29T09:21:42;-11756.25;;;29.64;43.37
10145;BME280;5113;41.822;23.564;2022-07-29T09:25:04;-11774.34;;;30.29;43.53
10145;BME280;5113;41.822;23.564;2022-07-29T09:28:12;-11779.16;;;30.46;43.28
10145;BME280;5113;41.822;23.564;2022-07-29T09:31:31;-11782.81;;;30.59;41.94
10145;BME280;5113;41.822;23.564;2022-07-29T09:34:38;-11781.56;;;30.54;42.28
10145;BME280;5113;41.822;23.564;2022-07-29T09:37:46;-11778.31;;;30.43;44.60
10145;BME280;5113;41.822;23.564;2022-07-29T09:40:56;-11811.94;;;31.64;42.81
10145;BME280;5113;41.822;23.564;2022-07-29T09:44:09;-11808.41;;;31.51;41.26
10145;BME280;5113;41.822;23.564;2022-07-29T09:47:17;-11769.69;;;30.12;44.19
10145;BME280;5113;41.822;23.564;2022-07-29T09:50:34;-11803.31;;;31.33;42.38
10145;BME280;5113;41.822;23.564;2022-07-29T09:53:42;-11824.50;;;32.09;41.11
10145;BME280;5113;41.822;23.564;2022-07-29T09:56:49;-11817.59;;;31.84;40.44
10145;BME280;5113;41.822;23.564;2022-07-29T09:59:57;-11837.38;;;32.55;40.63
10145;BME280;5113;41.822;23.564;2022-07-29T10:03:03;-11827.75;;;32.21;39.44
10145;BME280;5113;41.822;23.564;2022-07-29T10:06:10;-11837.09;;;32.54;39.05
10145;BME280;5113;41.822;23.564;2022-07-29T10:09:19;-11826.19;;;32.15;38.59
10145;BME280;5113;41.822;23.564;2022-07-29T10:12:26;-11860.56;;;33.38;37.81
10145;BME280;5113;41.822;23.564;2022-07-29T10:15:33;-11855.19;;;33.19;37.91
10145;BME280;5113;41.822;23.564;2022-07-29T10:18:42;-11872.41;;;33.81;36.45
10145;BME280;5113;41.822;23.564;2022-07-29T10:21:49;-11853.91;;;33.14;37.84
10145;BME280;5113;41.822;23.564;2022-07-29T10:25:03;-11846.41;;;32.88;36.91
10145;BME280;5113;41.822;23.564;2022-07-29T10:28:10;-11801.47;;;31.26;38.74
10145;BME280;5113;41.822;23.564;2022-07-29T10:31:27;-11786.22;;;30.71;40.64
10145;BME280;5113;41.822;23.564;2022-07-29T10:34:48;-11784.66;;;30.66;39.79
10145;BME280;5113;41.822;23.564;2022-07-29T10:38:27;-11788.75;;;30.80;40.06
10145;BME280;5113;41.822;23.564;2022-07-29T10:42:10;-11779.28;;;30.46;40.41
10145;BME280;5113;41.822;23.564;2022-07-29T10:45:23;-11792.16;;;30.93;40.24
10145;BME280;5113;41.822;23.564;2022-07-29T10:48:31;-11767.56;;;30.04;41.71
10145;BME280;5113;41.822;23.564;2022-07-29T10:52:06;-11783.81;;;30.63;41.30
10145;BME280;5113;41.822;23.564;2022-07-29T10:55:32;-11776.31;;;30.36;41.52
10145;BME280;5113;41.822;23.564;2022-07-29T10:58:40;-11781.69;;;30.55;39.68
10145;BME280;5113;41.822;23.564;2022-07-29T11:01:56;-11808.81;;;31.52;40.88
10145;BME280;5113;41.822;23.564;2022-07-29T11:05:23;-11830.59;;;32.31;39.96
10145;BME280;5113;41.822;23.564;2022-07-29T11:09:15;-11856.16;;;33.23;37.63
10145;BME280;5113;41.822;23.564;2022-07-29T11:12:46;-11859.69;;;33.35;36.27
10145;BME280;5113;41.822;23.564;2022-07-29T11:15:54;-11817.31;;;31.83;39.92
10145;BME280;5113;41.822;23.564;2022-07-29T11:19:22;-11864.78;;;33.54;35.77
10145;BME280;5113;41.822;23.564;2022-07-29T11:22:34;-11865.91;;;33.58;34.34
10145;BME280;5113;41.822;23.564;2022-07-29T11:26:21;-11847.84;;;32.93;34.62
10145;BME280;5113;41.822;23.564;2022-07-29T11:29:28;-11861.97;;;33.43;34.96
10145;BME280;5113;41.822;23.564;2022-07-29T11:32:45;-11826.91;;;32.17;35.85
10145;BME280;5113;41.822;23.564;2022-07-29T11:36:07;-11807.97;;;31.49;36.90
10145;BME280;5113;41.822;23.564;2022-07-29T11:39:26;-11801.63;;;31.27;37.44
10145;BME280;5113;41.822;23.564;2022-07-29T11:42:45;-11798.38;;;31.15;37.41
10145;BME280;5113;41.822;23.564;2022-07-29T11:45:53;-11806.69;;;31.45;36.67
10145;BME280;5113;41.822;23.564;2022-07-29T11:49:02;-11806.84;;;31.45;38.71
10145;BME280;5113;41.822;23.564;2022-07-29T11:52:14;-11792.56;;;30.94;42.16
10145;BME280;5113;41.822;23.564;2022-07-29T11:55:21;-11780.28;;;30.50;42.98
10145;BME280;5113;41.822;23.564;2022-07-29T11:58:37;-11771.66;;;30.19;42.90
10145;BME280;5113;41.822;23.564;2022-07-29T12:01:52;-11770.09;;;30.13;43.36
10145;BME280;5113;41.822;23.564;2022-07-29T12:05:20;-11768.00;;;30.06;44.50
10145;BME280;5113;41.822;23.564;2022-07-29T12:08:41;-11751.75;;;29.47;44.73
10145;BME280;5113;41.822;23.564;2022-07-29T12:11:49;-11739.72;;;29.04;45.39
10145;BME280;5113;41.822;23.564;2022-07-29T12:15:14;-11718.12;;;28.26;47.68
10145;BME280;5113;41.822;23.564;2022-07-29T12:18:24;-11713.31;;;28.09;48.30
10145;BME280;5113;41.822;23.564;2022-07-29T12:21:44;-11728.00;;;28.62;48.75
10145;BME280;5113;41.822;23.564;2022-07-29T12:25:05;-11728.56;;;28.64;48.06
10145;BME280;5113;41.822;23.564;2022-07-29T12:28:36;-11767.44;;;30.04;45.53
10145;BME280;5113;41.822;23.564;2022-07-29T12:31:44;-11804.72;;;31.38;43.05
10145;BME280;5113;41.822;23.564;2022-07-29T12:34:52;-11791.03;;;30.88;45.13
10145;BME280;5113;41.822;23.564;2022-07-29T12:37:59;-11762.91;;;29.87;47.90
10145;BME280;5113;41.822;23.564;2022-07-29T12:41:06;-11767.84;;;30.05;48.25
10145;BME280;5113;41.822;23.564;2022-07-29T12:44:12;-11754.13;;;29.56;48.38
10145;BME280;5113;41.822;23.564;2022-07-29T12:47:20;-11746.94;;;29.30;49.00
10145;BME280;5113;41.822;23.564;2022-07-29T12:50:26;-11749.91;;;29.41;48.73
10145;BME280;5113;41.822;23.564;2022-07-29T12:53:34;-11759.94;;;29.77;47.01
10145;BME280;5113;41.822;23.564;2022-07-29T12:56:42;-11748.34;;;29.35;48.79
10145;BME280;5113;41.822;23.564;2022-07-29T13:00:00;-11785.22;;;30.68;45.65
10145;BME280;5113;41.822;23.564;2022-07-29T13:03:07;-11808.53;;;31.51;43.94
10145;BME280;5113;41.822;23.564;2022-07-29T13:06:35;-11814.06;;;31.71;42.67
10145;BME280;5113;41.822;23.564;2022-07-29T13:09:44;-11817.44;;;31.83;43.84
10145;BME280;5113;41.822;23.564;2022-07-29T13:13:05;-11826.06;;;32.14;41.30
10145;BME280;5113;41.822;23.564;2022-07-29T13:16:13;-11831.16;;;32.33;40.98
10145;BME280;5113;41.822;23.564;2022-07-29T13:19:19;-11822.38;;;32.01;41.85
10145;BME280;5113;41.822;23.564;2022-07-29T13:22:25;-11843.44;;;32.77;40.77
10145;BME280;5113;41.822;23.564;2022-07-29T13:25:32;-11853.91;;;33.14;40.77
10145;BME280;5113;41.822;23.564;2022-07-29T13:28:39;-11855.75;;;33.21;39.08
10145;BME280;5113;41.822;23.564;2022-07-29T13:31:47;-11851.94;;;33.07;40.95
10145;BME280;5113;41.822;23.564;2022-07-29T13:34:53;-11845.56;;;32.85;40.28
10145;BME280;5113;41.822;23.564;2022-07-29T13:38:00;-11836.25;;;32.51;42.41
10145;BME280;5113;41.822;23.564;2022-07-29T13:41:07;-11856.88;;;33.25;40.54
10145;BME280;5113;41.822;23.564;2022-07-29T13:44:14;-11862.25;;;33.44;41.39
10145;BME280;5113;41.822;23.564;2022-07-29T13:47:21;-11872.13;;;33.80;38.50
10145;BME280;5113;41.822;23.564;2022-07-29T13:50:36;-11876.81;;;33.97;38.32
10145;BME280;5113;41.822;23.564;2022-07-29T13:53:43;-11872.56;;;33.82;37.71
10145;BME280;5113;41.822;23.564;2022-07-29T13:56:51;-11875.38;;;33.92;38.69
10145;BME280;5113;41.822;23.564;2022-07-29T13:59:57;-11875.97;;;33.94;37.68
10145;BME280;5113;41.822;23.564;2022-07-29T14:03:04;-11853.06;;;33.11;37.63
10145;BME280;5113;41.822;23.564;2022-07-29T14:06:11;-11833.13;;;32.40;38.31
10145;BME280;5113;41.822;23.564;2022-07-29T14:09:17;-11811.50;;;31.62;37.25
10145;BME280;5113;41.822;23.564;2022-07-29T14:12:24;-11783.94;;;30.63;39.55
10145;BME280;5113;41.822;23.564;2022-07-29T14:15:31;-11806.41;;;31.44;39.33
10145;BME280;5113;41.822;23.564;2022-07-29T14:18:43;-11847.56;;;32.92;37.97
10145;BME280;5113;41.822;23.564;2022-07-29T14:21:49;-11859.41;;;33.34;36.03
10145;BME280;5113;41.822;23.564;2022-07-29T14:24:55;-11862.25;;;33.44;36.50
10145;BME280;5113;41.822;23.564;2022-07-29T14:28:09;-11885.00;;;34.26;33.67
10145;BME280;5113;41.822;23.564;2022-07-29T14:31:18;-11823.53;;;32.05;37.33
10145;BME280;5113;41.822;23.564;2022-07-29T14:34:24;-11852.22;;;33.08;35.28
10145;BME280;5113;41.822;23.564;2022-07-29T14:37:31;-11860.13;;;33.37;35.25
10145;BME280;5113;41.822;23.564;2022-07-29T14:40:43;-11805.16;;;31.39;38.17
10145;BME280;5113;41.822;23.564;2022-07-29T14:43:55;-11818.16;;;31.86;37.55
10145;BME280;5113;41.822;23.564;2022-07-29T14:47:02;-11807.97;;;31.49;39.16
10145;BME280;5113;41.822;23.564;2022-07-29T14:50:11;-11801.06;;;31.25;40.49
10145;BME280;5113;41.822;23.564;2022-07-29T14:53:18;-11810.38;;;31.58;39.21
10145;BME280;5113;41.822;23.564;2022-07-29T14:56:24;-11824.09;;;32.07;38.24
10145;BME280;5113;41.822;23.564;2022-07-29T14:59:53;-11842.31;;;32.73;37.09
10145;BME280;5113;41.822;23.564;2022-07-29T15:03:00;-11845.16;;;32.83;37.78
10145;BME280;5113;41.822;23.564;2022-07-29T15:06:06;-11858.00;;;33.29;37.07
10145;BME280;5113;41.822;23.564;2022-07-29T15:09:13;-11837.38;;;32.55;36.85
10145;BME280;5113;41.822;23.564;2022-07-29T15:12:19;-11829.75;;;32.28;39.23
10145;BME280;5113;41.822;23.564;2022-07-29T15:15:26;-11808.13;;;31.50;38.85
10145;BME280;5113;41.822;23.564;2022-07-29T15:18:32;-11790.31;;;30.86;39.76
10145;BME280;5113;41.822;23.564;2022-07-29T15:21:39;-11798.50;;;31.15;39.31
10145;BME280;5113;41.822;23.564;2022-07-29T15:24:52;-11787.63;;;30.76;40.15
10145;BME280;5113;41.822;23.564;2022-07-29T15:27:59;-11777.72;;;30.41;44.16
10145;BME280;5113;41.822;23.564;2022-07-29T15:31:08;-11784.66;;;30.66;43.51
10145;BME280;5113;41.822;23.564;2022-07-29T15:34:15;-11769.81;;;30.12;45.49
10145;BME280;5113;41.822;23.564;2022-07-29T15:37:21;-11766.44;;;30.00;43.64
10145;BME280;5113;41.822;23.564;2022-07-29T15:40:28;-11771.81;;;30.19;42.63
10145;BME280;5113;41.822;23.564;2022-07-29T15:43:34;-11765.03;;;29.95;44.80
10145;BME280;5113;41.822;23.564;2022-07-29T15:46:42;-11761.50;;;29.82;45.32
10145;BME280;5113;41.822;23.564;2022-07-29T15:50:07;-11759.66;;;29.76;45.87
10145;BME280;5113;41.822;23.564;2022-07-29T15:53:19;-11757.38;;;29.68;46.78
10145;BME280;5113;41.822;23.564;2022-07-29T15:56:26;-11753.72;;;29.54;48.04
10145;BME280;5113;41.822;23.564;2022-07-29T15:59:33;-11750.91;;;29.44;48.01
10145;BME280;5113;41.822;23.564;2022-07-29T16:02:41;-11740.84;;;29.08;47.52
10145;BME280;5113;41.822;23.564;2022-07-29T16:05:47;-11734.09;;;28.84;48.69
10145;BME280;5113;41.822;23.564;2022-07-29T16:08:53;-11729.13;;;28.66;49.11
10145;BME280;5113;41.822;23.564;2022-07-29T16:12:00;-11733.22;;;28.81;49.29
10145;BME280;5113;41.822;23.564;2022-07-29T16:15:18;-11731.69;;;28.75;49.54
10145;BME280;5113;41.822;23.564;2022-07-29T16:18:26;-11736.75;;;28.93;50.24
10145;BME280;5113;41.822;23.564;2022-07-29T16:21:34;-11740.00;;;29.05;51.33
10145;BME280;5113;41.822;23.564;2022-07-29T16:24:40;-11739.03;;;29.02;52.22
10145;BME280;5113;41.822;23.564;2022-07-29T16:27:46;-11729.97;;;28.69;50.92